Detall de PIREP

Printer-friendly versionPDF version

[2012/05/19 15:00:00]
Flight IATA:CT2100
Pilot Number:042
Company ICAO:CAT
Aircraft Type:A320/E
PAX:100
Departing Airport: LEVC
Destination Airport: LEAS
Alternate Airport:LEMD
Online: No
Route:CLS UN733 ZMR UM30 ROVAK R107 XONDA
Flight Level:F330
No Slew and time accel
No pause
Crash detect
Detect pilot in Cockpit between each 30 and 45 minutes
15:00 Zero fuel Weight: 143850 Lbs, Fuel Weight: 42164 Lbs
15:00 VATSIM:LEVC 191430Z 12011KT 080V150 9999 FEW030 25/13 Q1005 NOSIG
15:00 VATSIM:LEAS 191430Z 02003KT 320V100 9999 FEW025TCU BKN086 14/08 Q1009 TEMPO 4000 SHRA
15:00 VOICE CATALONIAN
15:16 Parking Brakes off
15:23 Take-off
15:23 Take off Weight: 184705 Lbs
15:23 Wind: 123º @ 011 Knots Heading: 116º
15:23 POS N39º 29´ 14´´ W000º 28´ 36´´
15:23 Gear Up: 165 Knots
15:23 Flaps:3 at 165 Knots
15:24 Flaps:2 at 189 Knots
15:24 Flaps:1 at 199 Knots
15:24 Flaps:0 at202 Knots
15:38 Wind:338º@036 Knots Heading: 300º Ground Speed: 436 Knots Altitude 22372 ft
15:48 TOC
15:48 Fuel Weight: 35121 Lb
15:53 Wind:246º@022 Knots Heading: 293º Ground Speed: 436 Knots Altitude 32808 ft
16:08 Wind:262º@041 Knots Heading: 347º Ground Speed: 452 Knots Altitude 32831 ft
16:08 TOD
16:08 Fuel Weight: 32932 Lb
16:23 Wind:300º@010 Knots Heading: 350º Ground Speed: 255 Knots Altitude 9101 ft
16:24 Flaps:1 at 199 Knots
16:25 Flaps:3 at 197 Knots
16:31 Gear Down: 161 Knots
16:31 Flaps:4 at 161 Knots
16:31 Flaps:5 at 160 Knots
16:34 TouchDown:Rate -422 ft/min Speed: 143 Knots
16:34 VATSIM:LEAS 191600Z 32004KT 280V030 9999 -SHRA FEW026 FEW054CB BKN056 12/09 Q1009 TEMPO 4000 SHRA
16:34 Land
16:34 Wind:325º@004 Knots
16:34 Heading: 290º
16:34 Flight Duration: 01:11
16:34 Landing Weight: 174575 Lbs
16:34 POS N43º 33´ 51´´ W006º 02´ 16´´
16:41 Parking brakes on
16:41 Block to Block Duration: 01:25
16:41 Final Fuel: 30169 Lbls
16:41 Spent Fuel: 11995 Lbls
16:41 Flight Length: 424 NM
16:41 TOD Land Length: 126 NM

Exportar CSV

Powered by Drupal - Modified by Danger4k